Snow/Ice From: 23-10-2018 22:46 Until: 24-10-2018 08:00 warning for: Snow/Ice Level: Yellow info button
suomi:
Liikennesää: Ajokeli on huono tienpintojen jäätymisen vuoksi.

svenska:
Trafikvädret: Väglaget är dåligt p.g.a. tillfrysning av vägytor.

english:
Traffic weather warning: Bad road conditions are expected because of ice-covered roads. 


Thunder radar more information blitzortung!


Löydät sääaseman tiedot myös:

European Weather Network

Finland Weather Exchange

Weather Underground

AWEKAS



Weather Underground säähistoriasivu

Päivittäin yhteenveto Huhtikuu 22, 2017 Yksiköt:  Englantilaiset    Metriset   Molemmat
« Edellinen Päivä
Seuraava Päivä »
Päivittäin Viikoittain Kuukausittain Vuosittain Mukautettu
  Korkea: Matala: Keskiarvo:
Lämpötila: TemperatureF °F 32.4 °F 36.9 °F
Kastepiste: DewpointF °F 27.7 °F 31.6 °F
Kosteus: Humidity % 63 % 80 %
Tuulen nopeus: WindSpeedMPH mph 0.0 mph 2.2 mph
Tuulenpuuska: WindSpeedGustMPH mph - -
Tuuli:- - West
Ilmanpaine: PressureIn in 29.08 in -
Sade: 0.00 in    
Historical Graphs
 
 
Taulukkotiedot Huhtikuu 22, 2017
Aika Lämpötila Kastepiste Ilmanpaine Tuuli Tuulen nopeus Tuulenpuuska Kosteus Sademäärä (tunneittain)
TemperatureF °F DewpointF °F PressureIn in Calm     Humidity % HourlyPrecipIn in
00:00 35.4 °F 31.6 °F 29.12 in SSW 2.0 mph 4.0 mph 86 % 0.00 in
00:15 35.6 °F 31.8 °F 29.12 in SSW 2.0 mph 5.0 mph 86 % 0.00 in
00:30 35.4 °F 31.5 °F 29.12 in SW 2.0 mph 5.0 mph 85 % 0.00 in
00:45 35.6 °F 31.5 °F 29.11 in SW 2.0 mph 5.0 mph 85 % 0.00 in
01:00 35.4 °F 31.3 °F 29.11 in SW 2.0 mph 6.0 mph 85 % 0.00 in
01:15 35.2 °F 30.9 °F 29.11 in SW 2.0 mph 4.0 mph 84 % 0.00 in
01:30 35.2 °F 30.9 °F 29.10 in SW 2.0 mph 4.0 mph 84 % 0.00 in
01:45 34.9 °F 30.4 °F 29.10 in South 1.0 mph 5.0 mph 84 % 0.00 in
02:15 34.3 °F 30.2 °F 29.09 in Calm   3.0 mph 85 % 0.00 in
02:45 33.8 °F 30.0 °F 29.09 in South 1.0 mph 4.0 mph 86 % 0.00 in
03:00 33.6 °F 30.0 °F 29.09 in South 1.0 mph 4.0 mph 86 % 0.00 in
03:15 33.4 °F 30.0 °F 29.09 in Calm   3.0 mph 87 % 0.00 in
03:30 33.3 °F 29.8 °F 29.09 in SSW 1.0 mph 5.0 mph 87 % 0.00 in
03:45 32.9 °F 29.7 °F 29.09 in Calm     88 % 0.00 in
04:00 32.7 °F 29.8 °F 29.08 in Calm   1.0 mph 89 % 0.00 in
04:15 32.5 °F 29.7 °F 29.09 in Calm     89 % 0.00 in
04:30 32.7 °F 29.8 °F 29.08 in Calm   1.0 mph 89 % 0.00 in
04:45 32.5 °F 30.0 °F 29.08 in Calm   1.0 mph 90 % 0.00 in
05:00 32.4 °F 29.7 °F 29.09 in Calm     90 % 0.00 in
05:15 32.5 °F 30.2 °F 29.09 in Calm     91 % 0.00 in
05:30 33.3 °F 30.9 °F 29.09 in Calm   2.0 mph 91 % 0.00 in
05:45 33.4 °F 30.9 °F 29.09 in Calm   1.0 mph 90 % 0.00 in
06:00 33.4 °F 30.9 °F 29.09 in Calm     90 % 0.00 in
06:15 33.3 °F 30.7 °F 29.09 in Calm     90 % 0.00 in
06:30 33.3 °F 30.9 °F 29.09 in Calm     91 % 0.00 in
06:45 33.3 °F 31.1 °F 29.10 in Calm     92 % 0.00 in
07:00 33.3 °F 31.3 °F 29.10 in Calm     92 % 0.00 in
07:15 33.4 °F 31.6 °F 29.11 in Calm   2.0 mph 93 % 0.00 in
07:30 33.8 °F 32.0 °F 29.11 in Calm   3.0 mph 93 % 0.00 in
07:45 34.2 °F 32.4 °F 29.12 in NW 1.0 mph 4.0 mph 93 % 0.00 in
08:00 34.3 °F 32.5 °F 29.13 in Calm   1.0 mph 93 % 0.00 in
08:15 34.9 °F 32.9 °F 29.13 in Calm   2.0 mph 93 % 0.00 in
08:30 35.4 °F 33.3 °F 29.14 in NW 1.0 mph 3.0 mph 92 % 0.00 in
08:45 35.8 °F 33.4 °F 29.14 in NW 1.0 mph 4.0 mph 91 % 0.00 in
09:00 36.5 °F 33.8 °F 29.15 in NW 1.0 mph 5.0 mph 90 % 0.00 in
09:15 37.0 °F 33.8 °F 29.16 in NW 1.0 mph 4.0 mph 88 % 0.00 in
09:30 38.5 °F 34.9 °F 29.16 in NW 1.0 mph 7.0 mph 87 % 0.00 in
09:45 39.2 °F 34.5 °F 29.17 in NW 4.0 mph 8.0 mph 83 % 0.00 in
10:00 40.1 °F 34.7 °F 29.17 in North 2.0 mph 6.0 mph 81 % 0.00 in
10:15 41.5 °F 35.4 °F 29.18 in NW 1.0 mph 7.0 mph 79 % 0.00 in
10:30 40.5 °F 34.2 °F 29.19 in NW 4.0 mph 11.0 mph 78 % 0.00 in
10:45 40.6 °F 34.3 °F 29.20 in North 2.0 mph 7.0 mph 78 % 0.00 in
11:00 40.6 °F 34.5 °F 29.21 in North 1.0 mph 4.0 mph 79 % 0.00 in
11:15 40.3 °F 34.9 °F 29.22 in NNE 2.0 mph 7.0 mph 81 % 0.00 in
11:30 39.7 °F 34.9 °F 29.22 in North 2.0 mph 6.0 mph 83 % 0.00 in
11:45 41.2 °F 36.0 °F 29.23 in NNW 3.0 mph 7.0 mph 82 % 0.00 in
12:00 40.5 °F 34.9 °F 29.24 in NNW 4.0 mph 9.0 mph 80 % 0.00 in
12:15 41.9 °F 35.6 °F 29.24 in NNW 3.0 mph 10.0 mph 78 % 0.00 in
12:30 43.2 °F 35.8 °F 29.25 in NNW 3.0 mph 8.0 mph 75 % 0.00 in
12:45 42.6 °F 35.6 °F 29.25 in NNW 4.0 mph 10.0 mph 76 % 0.00 in
13:00 41.5 °F 34.9 °F 29.26 in NNW 4.0 mph 9.0 mph 77 % 0.00 in
13:15 41.0 °F 35.6 °F 29.27 in NW 5.0 mph 11.0 mph 81 % 0.00 in
13:30 41.2 °F 35.2 °F 29.27 in NNW 6.0 mph 18.0 mph 79 % 0.00 in
13:45 41.7 °F 36.0 °F 29.28 in NNW 4.0 mph 10.0 mph 80 % 0.00 in
14:00 42.4 °F 36.0 °F 29.28 in NNW 6.0 mph 16.0 mph 78 % 0.00 in
14:15 41.9 °F 35.8 °F 29.29 in NNW 7.0 mph 12.0 mph 79 % 0.00 in
14:30 41.9 °F 36.5 °F 29.30 in NW 7.0 mph 13.0 mph 81 % 0.00 in
14:45 41.0 °F 35.1 °F 29.32 in NNW 5.0 mph 12.0 mph 79 % 0.00 in
15:00 40.6 °F 34.9 °F 29.32 in North 3.0 mph 12.0 mph 80 % 0.00 in
15:15 40.6 °F 35.2 °F 29.33 in NNW 4.0 mph 10.0 mph 81 % 0.00 in
15:30 40.3 °F 34.5 °F 29.33 in NNW 5.0 mph 14.0 mph 80 % 0.00 in
15:45 39.9 °F 34.3 °F 29.34 in North 3.0 mph 7.0 mph 80 % 0.00 in
16:00 40.1 °F 34.2 °F 29.35 in North 3.0 mph 6.0 mph 79 % 0.00 in
16:15 39.9 °F 33.3 °F 29.35 in NNW 4.0 mph 10.0 mph 77 % 0.00 in
16:30 39.7 °F 32.7 °F 29.36 in North 4.0 mph 8.0 mph 76 % 0.00 in
16:45 39.7 °F 31.5 °F 29.37 in North 5.0 mph 14.0 mph 72 % 0.00 in
17:00 40.1 °F 32.5 °F 29.38 in North 3.0 mph 7.0 mph 74 % 0.00 in
17:15 40.6 °F 32.4 °F 29.39 in North 4.0 mph 12.0 mph 72 % 0.00 in
17:30 40.6 °F 32.0 °F 29.39 in North 5.0 mph 14.0 mph 71 % 0.00 in
17:45 40.6 °F 32.7 °F 29.40 in North 3.0 mph 7.0 mph 73 % 0.00 in
18:00 40.8 °F 32.2 °F 29.40 in North 3.0 mph 7.0 mph 71 % 0.00 in
18:15 40.6 °F 32.4 °F 29.41 in North 4.0 mph 9.0 mph 72 % 0.00 in
18:30 40.5 °F 32.2 °F 29.41 in North 3.0 mph 7.0 mph 72 % 0.00 in
18:45 40.3 °F 32.9 °F 29.41 in NNW 3.0 mph 7.0 mph 75 % 0.00 in
19:00 40.8 °F 31.8 °F 29.42 in NNW 4.0 mph 9.0 mph 70 % 0.00 in
19:15 41.4 °F 31.6 °F 29.42 in NNE 2.0 mph 6.0 mph 68 % 0.00 in
19:30 40.6 °F 28.9 °F 29.42 in North 5.0 mph 11.0 mph 63 % 0.00 in
19:45 39.7 °F 28.6 °F 29.43 in North 4.0 mph 10.0 mph 64 % 0.00 in
20:00 39.4 °F 28.9 °F 29.43 in North 3.0 mph 6.0 mph 66 % 0.00 in
20:15 39.0 °F 29.3 °F 29.44 in NNW 1.0 mph 4.0 mph 68 % 0.00 in
20:30 38.5 °F 28.4 °F 29.44 in NW 2.0 mph 8.0 mph 67 % 0.00 in
20:45 37.9 °F 28.8 °F 29.45 in NNW 2.0 mph 6.0 mph 69 % 0.00 in
21:00 37.2 °F 28.6 °F 29.45 in NW 2.0 mph 8.0 mph 71 % 0.00 in
21:15 36.7 °F 28.6 °F 29.46 in NNW 1.0 mph 5.0 mph 72 % 0.00 in
21:30 36.1 °F 28.2 °F 29.46 in NW 2.0 mph 5.0 mph 73 % 0.00 in
21:45 35.6 °F 28.4 °F 29.47 in NW 3.0 mph 6.0 mph 75 % 0.00 in
22:00 34.9 °F 28.4 °F 29.47 in NW 2.0 mph 4.0 mph 77 % 0.00 in
22:30 33.6 °F 28.2 °F 29.47 in NW 2.0 mph 4.0 mph 80 % 0.00 in
22:45 33.3 °F 28.0 °F 29.47 in NW 2.0 mph 4.0 mph 81 % 0.00 in
23:00 33.1 °F 28.0 °F 29.47 in NW 2.0 mph 4.0 mph 82 % 0.00 in
23:15 32.5 °F 27.7 °F 29.47 in Calm   3.0 mph 82 % 0.00 in
23:30 32.7 °F 28.2 °F 29.47 in NW 2.0 mph 4.0 mph 83 % 0.00 in
23:45 32.9 °F 28.2 °F 29.47 in Calm   4.0 mph 83 % 0.00 in
Esan sääasema
Terveisin Weather Underground - 2.75 mb

Alkuperäinen skripti  Jim McMurry - jmcmurry@mwt.net Sovitettu myös templatelle  Wim van der Kuil - Leuven-Template.eu

Laitteet joita käytämme:

Sääasema
Davis VP2

Sääasemaohjelma
Cumulus

Sääaseman tietokone
Asus EeePC

Palveluntarjoaja
Suncomet

Davis VP2

Cumulus

Asus EeePC

Suncomet